WetterOnline ( http://www.wetteronline.de )

Wetter aktuell Merzig

Aktuelles Wetter: Berus (367m)

6-stündlich | Neueste Meldungen
Ortszeit Temperatur Wetter
Do, 19.04. 8:00 14.3° C wolkenlos
Do, 19.04. 2:00 15.8° C leicht bewölkt
Mi, 18.04. 20:00 21.9° C fast wolkenlos
Mi, 18.04. 14:00 23.6° C wolkenlos
Mi, 18.04. 8:00 12.1° C leicht bewölkt
Mi, 18.04. 2:00 13.8° C wolkig
Di, 17.04. 20:00 18.3° C leicht bewölkt
Di, 17.04. 14:00 18.8° C wolkenlos
Ortszeit Temperatur Wetter
Do, 19.04. 11:30 21.0° C leicht bewölkt
Do, 19.04. 11:20 21.0° C leicht bewölkt
Do, 19.04. 11:10 20.9° C wolkig
Do, 19.04. 11:00 20.1° C leicht bewölkt
Do, 19.04. 10:50 20.1° C leicht bewölkt
Do, 19.04. 10:40 20.0° C fast wolkenlos
Do, 19.04. 10:30 19.3° C wolkenlos
Do, 19.04. 10:00 17.8° C wolkenlos
Do, 19.04. 9:30 16.5° C wolkenlos
Do, 19.04. 9:00 15.8° C wolkenlos
Do, 19.04. 8:30 14.9° C wolkenlos
Ortszeit Relative Feuchte Sichtweite
Do, 19.04. 8:00 58% 25 km
Do, 19.04. 2:00 52% 40 km
Mi, 18.04. 20:00 33% 50 km
Mi, 18.04. 14:00 32% 35 km
Mi, 18.04. 8:00 69% 15 km
Mi, 18.04. 2:00 63% 27 km
Di, 17.04. 20:00 45% 70 km
Di, 17.04. 14:00 41% 30 km
Ortszeit Relative Feuchte Sichtweite
Do, 19.04. 11:30 39% 30 km
Do, 19.04. 11:20 39% -
Do, 19.04. 11:10 41% -
Do, 19.04. 11:00 41% 26 km
Do, 19.04. 10:50 41% -
Do, 19.04. 10:40 43% -
Do, 19.04. 10:30 47% 28 km
Do, 19.04. 10:00 52% 25 km
Do, 19.04. 9:30 54% 23 km
Do, 19.04. 9:00 54% 23 km
Do, 19.04. 8:30 56% 20 km
Ortszeit Niederschlagsmenge Niederschlagsart
Do, 19.04. 8:00 0.0 l/m2 in 12 Std. -
Do, 19.04. 2:00 0.0 l/m2 in 6 Std. -
Mi, 18.04. 20:00 0.0 l/m2 in 12 Std. -
Mi, 18.04. 14:00 0.0 l/m2 in 6 Std. -
Mi, 18.04. 8:00 0.0 l/m2 in 12 Std. -
Mi, 18.04. 2:00 0.0 l/m2 in 6 Std. -
Di, 17.04. 20:00 0.0 l/m2 in 12 Std. -
Di, 17.04. 14:00 0.0 l/m2 in 6 Std. -
Ortszeit Niederschlagsmenge Niederschlagsart
Do, 19.04. 11:30 0.0 l/m2 in 1 Std. -
Do, 19.04. 11:20 keine Meldung -
Do, 19.04. 11:10 keine Meldung -
Do, 19.04. 11:00 0.0 l/m2 in 1 Std. -
Do, 19.04. 10:50 keine Meldung -
Do, 19.04. 10:40 keine Meldung -
Do, 19.04. 10:30 0.0 l/m2 in 1 Std. -
Do, 19.04. 10:00 0.0 l/m2 in 1 Std. -
Do, 19.04. 9:30 0.0 l/m2 in 1 Std. -
Do, 19.04. 9:00 0.0 l/m2 in 1 Std. -
Do, 19.04. 8:30 0.0 l/m2 in 1 Std. -
Ortszeit Stärke Spitze Richtung
km/h Bft. km/h Grad Sektor
Do, 19.04. 8:00 18 3 22 40° NO
Do, 19.04. 2:00 15 3 26 40° NO
Mi, 18.04. 20:00 11 2 40 70° O
Mi, 18.04. 14:00 17 3 33 60° NO
Mi, 18.04. 8:00 11 2 14 30° NO
Mi, 18.04. 2:00 11 2 14 20° N
Di, 17.04. 20:00 7 2 25 290° W
Di, 17.04. 14:00 7 2 22 160° S
Ortszeit Stärke Spitze Richtung
km/h Bft. km/h Grad Sektor
Do, 19.04. 11:30 11 2 22 80° O
Do, 19.04. 11:20 11 2 - 80° O
Do, 19.04. 11:10 11 2 - 80° O
Do, 19.04. 11:00 13 3 22 90° O
Do, 19.04. 10:50 13 3 - 90° O
Do, 19.04. 10:40 11 2 - 80° O
Do, 19.04. 10:30 11 2 22 70° O
Do, 19.04. 10:00 11 2 22 60° NO
Do, 19.04. 9:30 13 3 22 50° NO
Do, 19.04. 9:00 14 3 22 40° NO
Do, 19.04. 8:30 17 3 22 40° NO
Ortszeit Untergrenze Bedeckung Gattung
total tief tief mittel hoch
Do, 19.04. 8:00 - 0/8 0/8 - - -
Do, 19.04. 2:00 12000 m 4/8 0/8 - - -
Mi, 18.04. 20:00 2100 m 1/8 1/8 - - -
Mi, 18.04. 14:00 - 0/8 0/8 - - -
Mi, 18.04. 8:00 10500 m 5/8 0/8 - - -
Mi, 18.04. 2:00 9000 m 8/8 0/8 - - -
Di, 17.04. 20:00 10500 m 6/8 0/8 - - -
Di, 17.04. 14:00 - 0/8 0/8 - - -
Ortszeit Bedeckungsgrad in Achtel und Wolkenuntergrenze
Do, 19.04. 11:30 3(12000m)
Do, 19.04. 11:20 3(12000m)
Do, 19.04. 11:10 7(12000m)
Do, 19.04. 11:00 4(10500m)
Do, 19.04. 10:50 4(10500m)
Do, 19.04. 10:40 2(10500m)
Do, 19.04. 10:30 keine Wolken
Do, 19.04. 10:00 keine Wolken
Do, 19.04. 9:30 keine Wolken
Do, 19.04. 9:00 keine Wolken
Do, 19.04. 8:30 keine Wolken
Ortszeit Luftdruck NN (hPa) Tendenz (hPa in 3 Std.)
Do, 19.04. 8:00 1028 - 0,2
Do, 19.04. 2:00 1028 - 0,2
Mi, 18.04. 20:00 1027 - 0,4
Mi, 18.04. 14:00 1029 - 0,9
Mi, 18.04. 8:00 1031 + 0,8
Mi, 18.04. 2:00 1029 + 1,0
Di, 17.04. 20:00 1026 + 0,9
Di, 17.04. 14:00 1025 - 0,3
Ortszeit Luftdruck NN (hPa) Tendenz (hPa in 3 Std.)
Do, 19.04. 11:30 1027 + 0,1
Do, 19.04. 11:20 1027 keine Meldung
Do, 19.04. 11:10 1027 keine Meldung
Do, 19.04. 11:00 1027 + 0,1
Do, 19.04. 10:50 1027 keine Meldung
Do, 19.04. 10:40 1027 keine Meldung
Do, 19.04. 10:30 1027 + 0,2
Do, 19.04. 10:00 1027 + 0,1
Do, 19.04. 9:30 1027 0,0
Do, 19.04. 9:00 1027 0,0
Do, 19.04. 8:30 1027 - 0,2
Ortszeit Schneehöhe (cm)
Do, 19.04. 8:00 -
Do, 19.04. 2:00 -
Mi, 18.04. 20:00 -
Mi, 18.04. 14:00 0
Mi, 18.04. 8:00 -
Mi, 18.04. 2:00 -
Di, 17.04. 20:00 -
Di, 17.04. 14:00 -
Ortszeit Schneehöhe (cm)
Do, 19.04. 11:30 -
Do, 19.04. 11:20 -
Do, 19.04. 11:10 -
Do, 19.04. 11:00 -
Do, 19.04. 10:50 -
Do, 19.04. 10:40 -
Do, 19.04. 10:30 -
Do, 19.04. 10:00 -
Do, 19.04. 9:30 -
Do, 19.04. 9:00 -
Do, 19.04. 8:30 -
Link zu dieser Seite / Seite empfehlen

Das Wetter in ...